Time;durP1;ratioP1;P1;durP2;ratioP2;P2;SDS_P1;SDS_P2;PMS_P1;PMS_P2;Temp;Humidity;BMP_temperature;BMP_pressure;BME280_temperature;BME280_humidity;BME280_pressure;Samples;Min_cycle;Max_cycle;Signal;HPM_P1;HPM_P2
2022/08/02 00:01:43;;;;;;;13.48;10.58;;;;;;;19.14;93.19;100048.38;1789150;80;21365;-80
2022/08/02 00:04:10;;;;;;;11.10;9.18;;;;;;;19.11;93.30;100044.22;1789115;79;20935;-81
2022/08/02 00:06:37;;;;;;;10.55;8.53;;;;;;;19.11;93.68;100073.96;1789073;79;20930;-81
2022/08/02 00:09:04;;;;;;;8.15;6.62;;;;;;;19.10;93.83;100090.89;1789034;80;21226;-81
2022/08/02 00:11:31;;;;;;;7.83;6.28;;;;;;;19.10;93.80;100102.84;1789046;80;20943;-81
2022/08/02 00:13:57;;;;;;;6.87;5.97;;;;;;;19.11;93.65;100113.33;1789017;80;20920;-81
2022/08/02 00:16:24;;;;;;;8.63;5.85;;;;;;;19.11;93.48;100123.13;1788965;80;21564;-81
2022/08/02 00:18:51;;;;;;;6.08;5.03;;;;;;;19.12;93.23;100137.61;1789163;79;20943;-81
2022/08/02 00:21:18;;;;;;;7.97;5.67;;;;;;;19.12;92.81;100156.68;1789030;80;21859;-79
2022/08/02 00:23:44;;;;;;;8.50;5.85;;;;;;;19.11;92.39;100177.13;1788987;79;20919;-79
2022/08/02 00:26:11;;;;;;;11.00;8.95;;;;;;;19.13;92.59;100185.77;1789107;80;20971;-80
2022/08/02 00:28:37;;;;;;;11.18;8.10;;;;;;;19.14;92.66;100190.58;1789223;79;21006;-80
2022/08/02 00:31:04;;;;;;;12.63;8.40;;;;;;;19.14;92.42;100183.47;1789118;80;20935;-80
2022/08/02 00:33:30;;;;;;;13.70;10.70;;;;;;;19.14;92.32;100159.55;1789023;80;21800;-81
2022/08/02 00:35:57;;;;;;;13.78;10.60;;;;;;;19.13;92.09;100135.27;1788995;80;20892;-80
2022/08/02 00:38:23;;;;;;;12.58;9.88;;;;;;;19.13;92.22;100132.61;1789117;80;20931;-80
2022/08/02 00:40:51;;;;;;;12.88;9.68;;;;;;;19.15;92.43;100131.95;1789014;80;20930;-80
2022/08/02 00:43:18;;;;;;;11.33;9.48;;;;;;;19.17;92.65;100125.16;1789098;79;20919;-80
2022/08/02 00:45:45;;;;;;;11.70;8.78;;;;;;;19.18;92.74;100115.67;1789141;80;21144;-79
2022/08/02 00:48:12;;;;;;;10.70;8.95;;;;;;;19.20;92.91;100106.22;1789150;80;20967;-80
2022/08/02 00:50:39;;;;;;;10.80;8.70;;;;;;;19.21;93.21;100091.95;1789064;79;21409;-80
2022/08/02 00:53:08;;;;;;;12.60;9.10;;;;;;;19.20;93.30;100063.69;1789083;79;20986;-79
2022/08/02 00:55:36;;;;;;;11.75;8.78;;;;;;;19.20;93.31;100055.71;1789094;80;20919;-79
2022/08/02 00:58:03;;;;;;;10.45;7.35;;;;;;;19.19;93.45;100050.08;1789105;80;21879;-80
2022/08/02 01:00:31;;;;;;;10.18;7.40;;;;;;;19.19;93.43;100060.70;1788981;79;20884;-80
2022/08/02 01:02:57;;;;;;;10.05;8.00;;;;;;;19.18;93.38;100055.04;1788995;80;21353;-79
2022/08/02 01:05:25;;;;;;;9.10;7.25;;;;;;;19.18;93.43;100052.38;1788990;80;20884;-79
2022/08/02 01:07:51;;;;;;;8.40;7.60;;;;;;;19.17;93.53;100064.84;1789186;79;20832;-80
2022/08/02 01:10:18;;;;;;;8.45;7.65;;;;;;;19.18;93.48;100114.85;1789134;80;21140;-80
2022/08/02 01:12:46;;;;;;;8.48;7.10;;;;;;;19.18;93.47;100153.39;1788998;80;20915;-80
2022/08/02 01:15:12;;;;;;;7.45;6.53;;;;;;;19.19;93.50;100176.34;1789128;80;20923;-81
2022/08/02 01:18:00;;;;;;;7.83;7.03;;;;;;;19.17;93.39;100177.83;1789032;80;20903;-80
2022/08/02 01:21:07;;;;;;;8.40;6.45;;;;;;;19.18;93.26;100168.84;1789216;80;21306;-81
2022/08/02 01:24:05;;;;;;;10.55;7.67;;;;;;;19.19;93.58;100172.36;1789108;80;21201;-81
2022/08/02 01:26:40;;;;;;;8.95;8.05;;;;;;;19.21;93.77;100166.39;1788183;80;20997;-82
2022/08/02 01:29:33;;;;;;;10.58;7.15;;;;;;;19.20;93.07;100137.62;1789218;80;20915;-82
2022/08/02 01:32:14;;;;;;;10.43;7.10;;;;;;;19.21;92.78;100137.14;1788948;79;20907;-82
2022/08/02 01:35:04;;;;;;;7.80;7.03;;;;;;;19.22;92.12;100149.43;1770838;80;20903;-83
2022/08/02 01:37:51;;;;;;;9.63;6.60;;;;;;;19.21;91.83;100151.27;1759701;81;21075;-82
2022/08/02 01:40:28;;;;;;;7.75;6.92;;;;;;;19.20;91.43;100154.89;1760120;81;20958;-82
2022/08/02 01:42:56;;;;;;;9.20;7.10;;;;;;;19.17;91.30;100151.74;1760135;81;20961;-83
2022/08/02 01:48:23;;;;;;;6.20;5.60;;;;;;;19.19;91.23;100136.47;1884037;75;22196;-82
2022/08/02 01:50:50;;;;;;;6.20;5.45;;;;;;;19.15;91.17;100159.04;1860863;77;20840;-83
2022/08/02 01:53:19;;;;;;;6.85;5.47;;;;;;;19.15;91.03;100167.02;1860787;77;21213;-84
2022/08/02 01:55:49;;;;;;;6.25;5.67;;;;;;;19.14;91.12;100172.84;1860638;77;20919;-83
2022/08/02 01:58:17;;;;;;;6.03;5.45;;;;;;;19.14;91.05;100156.89;1860861;77;20923;-83
2022/08/02 02:00:44;;;;;;;6.12;5.45;;;;;;;19.15;91.28;100153.22;1860680;77;20918;-83
2022/08/02 02:03:19;;;;;;;6.03;5.20;;;;;;;19.15;91.47;100149.23;1860859;76;20883;-83
2022/08/02 02:05:47;;;;;;;7.10;6.42;;;;;;;19.16;91.66;100157.53;1860950;76;21836;-83
2022/08/02 02:08:14;;;;;;;6.65;6.05;;;;;;;19.16;91.80;100164.68;1860584;77;21329;-82
2022/08/02 02:10:41;;;;;;;7.37;5.83;;;;;;;19.16;91.95;100153.55;1860807;76;20879;-82
2022/08/02 02:13:14;;;;;;;8.80;6.10;;;;;;;19.16;92.32;100131.45;1860766;77;20907;-83
2022/08/02 02:15:45;;;;;;;6.28;5.67;;;;;;;19.15;92.48;100120.50;1860824;77;20921;-84
2022/08/02 02:18:15;;;;;;;6.55;5.95;;;;;;;19.14;92.47;100124.13;1860733;77;21217;-84
2022/08/02 02:20:42;;;;;;;5.55;5.05;;;;;;;19.11;92.62;100129.78;1861110;77;20864;-83
2022/08/02 02:23:10;;;;;;;6.53;5.97;;;;;;;19.11;92.87;100137.75;1861256;77;21041;-82
2022/08/02 02:25:37;;;;;;;7.15;6.12;;;;;;;19.09;93.14;100139.23;1861781;77;20883;-83
2022/08/02 02:28:11;;;;;;;6.90;6.17;;;;;;;19.07;93.30;100135.90;1857821;76;20872;-83
2022/08/02 02:30:39;;;;;;;10.90;6.03;;;;;;;19.08;93.46;100138.08;1863320;77;21228;-84
2022/08/02 02:33:06;;;;;;;6.47;5.87;;;;;;;19.08;93.43;100139.41;1861528;77;20977;-83
2022/08/02 02:35:37;;;;;;;6.72;6.03;;;;;;;19.08;93.55;100144.73;1860671;77;20828;-82
2022/08/02 02:38:07;;;;;;;7.30;6.60;;;;;;;19.07;93.92;100151.02;1860742;77;21397;-83
2022/08/02 02:40:33;;;;;;;8.03;6.62;;;;;;;19.09;94.08;100160.50;1860827;77;20864;-83
2022/08/02 02:42:59;;;;;;;8.50;7.17;;;;;;;19.08;94.03;100155.36;1802959;77;21230;-83
2022/08/02 02:45:27;;;;;;;8.35;7.65;;;;;;;19.09;94.11;100164.48;1860644;77;21421;-83
2022/08/02 02:47:54;;;;;;;7.62;6.92;;;;;;;19.10;94.05;100158.66;1860528;77;20902;-82
2022/08/02 02:50:21;;;;;;;7.70;6.72;;;;;;;19.09;94.21;100141.89;1860568;77;20914;-83
2022/08/02 02:52:48;;;;;;;7.55;6.85;;;;;;;19.10;94.40;100153.34;1860701;77;20949;-83
2022/08/02 02:55:15;;;;;;;8.98;6.20;;;;;;;19.10;94.42;100172.81;1860673;77;21946;-83
2022/08/02 02:57:41;;;;;;;7.28;6.58;;;;;;;19.12;94.37;100204.05;1857828;77;20875;-83
2022/08/02 03:00:11;;;;;;;7.83;6.85;;;;;;;19.12;94.26;100230.64;1860157;77;20958;-84
2022/08/02 03:02:39;;;;;;;7.03;6.47;;;;;;;19.13;94.25;100232.29;1860142;77;20879;-82
2022/08/02 03:05:06;;;;;;;6.92;6.35;;;;;;;19.12;94.26;100225.32;1860064;77;20907;-83
2022/08/02 03:07:33;;;;;;;6.65;6.03;;;;;;;19.13;94.34;100219.00;1860064;76;21140;-84
2022/08/02 03:10:04;;;;;;;7.67;6.50;;;;;;;19.13;94.53;100210.20;1859972;77;21337;-83
2022/08/02 03:12:32;;;;;;;8.28;6.28;;;;;;;19.16;94.67;100201.89;1857343;77;20966;-83
2022/08/02 03:15:03;;;;;;;7.03;6.28;;;;;;;19.18;94.73;100202.58;1857282;76;21404;-85
2022/08/02 03:17:43;;;;;;;9.40;6.72;;;;;;;19.18;94.69;100214.03;1860306;77;20930;-83
2022/08/02 03:20:17;;;;;;;8.23;7.33;;;;;;;19.20;94.63;100229.33;1860135;77;21156;-84
2022/08/02 03:22:44;;;;;;;7.45;6.70;;;;;;;19.21;94.40;100234.17;1860329;76;20859;-84
2022/08/02 03:25:11;;;;;;;7.50;6.83;;;;;;;19.23;94.27;100241.47;1860021;77;21330;-84
2022/08/02 03:27:37;;;;;;;8.88;8.08;;;;;;;19.22;94.12;100234.50;1860015;77;20946;-83
2022/08/02 03:30:05;;;;;;;10.15;9.18;;;;;;;19.23;93.99;100249.45;1860072;77;21067;-83
2022/08/02 03:32:34;;;;;;;9.90;8.90;;;;;;;19.23;93.77;100259.61;1860128;76;21176;-82
2022/08/02 03:35:01;;;;;;;11.53;10.38;;;;;;;19.23;93.79;100250.30;1860142;77;20895;-84
2022/08/02 03:37:28;;;;;;;9.60;8.70;;;;;;;19.23;93.72;100236.16;1859965;77;20962;-82
2022/08/02 03:39:55;;;;;;;10.25;9.00;;;;;;;19.25;93.69;100227.53;1860014;77;21734;-82
2022/08/02 03:42:21;;;;;;;10.45;9.45;;;;;;;19.26;93.86;100231.37;1860164;76;20914;-83
2022/08/02 03:44:48;;;;;;;11.55;10.03;;;;;;;19.27;93.83;100225.55;1859993;77;21344;-83
2022/08/02 03:47:16;;;;;;;11.48;9.83;;;;;;;19.29;93.73;100214.77;1856756;77;20925;-83
2022/08/02 03:49:43;;;;;;;11.48;10.28;;;;;;;19.31;93.73;100206.95;1849341;77;21355;-83
2022/08/02 03:52:09;;;;;;;11.35;10.08;;;;;;;19.36;93.78;100190.53;1849172;76;20873;-82
2022/08/02 03:54:36;;;;;;;11.38;10.03;;;;;;;19.41;93.96;100180.27;1849274;76;20956;-82
2022/08/02 03:57:06;;;;;;;13.83;12.33;;;;;;;19.45;94.15;100186.91;1824163;77;21190;-83
2022/08/02 03:59:41;;;;;;;12.03;10.93;;;;;;;19.48;94.17;100190.59;1849287;77;20992;-82
2022/08/02 04:02:08;;;;;;;11.08;9.65;;;;;;;19.51;94.36;100192.09;1849238;76;20905;-84
2022/08/02 04:04:35;;;;;;;11.57;9.43;;;;;;;19.56;94.05;100195.92;1849263;77;20859;-83
2022/08/02 04:07:03;;;;;;;9.65;8.53;;;;;;;19.57;93.09;100187.47;1849289;77;20904;-84
2022/08/02 04:09:30;;;;;;;8.95;8.05;;;;;;;19.57;92.49;100196.27;1849291;77;21123;-84
2022/08/02 04:11:56;;;;;;;11.85;8.53;;;;;;;19.59;91.69;100191.62;1849174;77;20870;-84
2022/08/02 04:14:23;;;;;;;9.50;8.55;;;;;;;19.62;91.07;100185.15;1849221;77;20916;-83
2022/08/02 04:16:57;;;;;;;12.28;9.83;;;;;;;19.66;91.07;100177.19;1823577;77;20952;-84
2022/08/02 04:19:29;;;;;;;10.53;9.45;;;;;;;19.75;91.30;100171.42;1850322;76;20858;-84
2022/08/02 04:21:55;;;;;;;14.60;9.73;;;;;;;19.80;91.49;100160.61;1849360;77;21231;-84
2022/08/02 04:24:26;;;;;;;9.03;8.13;;;;;;;19.86;91.55;100158.63;1849263;77;20870;-84
2022/08/02 04:26:55;;;;;;;9.83;8.25;;;;;;;19.93;91.35;100159.31;1848728;77;20838;-84
2022/08/02 04:29:22;;;;;;;12.40;9.63;;;;;;;19.98;91.11;100151.16;1849334;77;20838;-83
2022/08/02 04:31:48;;;;;;;10.98;9.55;;;;;;;20.04;91.20;100153.67;1849590;77;21456;-84
2022/08/02 04:34:14;;;;;;;9.08;8.18;;;;;;;20.10;91.21;100155.67;1823437;77;21856;-84
2022/08/02 04:36:42;;;;;;;9.90;9.00;;;;;;;20.18;91.22;100153.50;1849240;77;20857;-83
2022/08/02 04:39:08;;;;;;;10.72;9.03;;;;;;;20.28;91.11;100152.85;1849295;77;20913;-83
2022/08/02 04:41:38;;;;;;;9.58;8.68;;;;;;;20.44;91.29;100142.69;1849251;77;20905;-83
2022/08/02 04:44:05;;;;;;;10.58;8.48;;;;;;;20.62;90.89;100141.20;1849341;77;21272;-83
2022/08/02 04:46:32;;;;;;;8.53;7.70;;;;;;;20.84;90.43;100130.33;1849456;76;21128;-82
2022/08/02 04:48:59;;;;;;;9.75;8.43;;;;;;;21.09;90.04;100130.56;1849050;77;20838;-83
2022/08/02 04:51:25;;;;;;;10.50;8.48;;;;;;;21.32;88.46;100132.45;1849291;76;21360;-84
2022/08/02 04:53:52;;;;;;;8.23;7.47;;;;;;;21.53;87.20;100137.23;1849558;76;20869;-83
2022/08/02 04:56:18;;;;;;;8.10;7.17;;;;;;;21.78;86.07;100141.09;1849506;77;20874;-83
2022/08/02 04:58:45;;;;;;;7.40;6.65;;;;;;;22.07;84.77;100143.88;1849289;77;21735;-84
2022/08/02 05:01:11;;;;;;;8.18;6.65;;;;;;;22.42;83.13;100144.30;1849243;77;21414;-83
2022/08/02 05:03:38;;;;;;;7.53;6.78;;;;;;;22.85;81.47;100146.38;1849357;76;20900;-84
2022/08/02 05:06:04;;;;;;;8.70;7.75;;;;;;;23.26;79.37;100146.77;1849207;76;21415;-84
2022/08/02 05:08:32;;;;;;;7.75;6.55;;;;;;;23.68;77.03;100153.72;1849139;77;21351;-85
2022/08/02 05:10:58;;;;;;;6.35;5.85;;;;;;;24.12;75.51;100155.44;1849321;77;21169;-85
2022/08/02 05:13:25;;;;;;;6.42;5.83;;;;;;;24.60;74.09;100167.22;1849248;77;21426;-83
2022/08/02 05:15:52;;;;;;;6.30;5.70;;;;;;;25.16;72.30;100164.98;1849413;76;20870;-83
2022/08/02 05:18:18;;;;;;;5.42;5.03;;;;;;;25.78;70.26;100173.11;1849199;77;21343;-85
2022/08/02 05:20:45;;;;;;;5.40;4.90;;;;;;;26.37;67.75;100172.89;1849259;77;20936;-86
2022/08/02 05:23:11;;;;;;;4.33;3.95;;;;;;;26.89;65.21;100168.55;1849242;77;21363;-85
2022/08/02 05:25:38;;;;;;;4.47;4.17;;;;;;;27.39;61.66;100174.23;1849131;77;20892;-86
2022/08/02 05:28:04;;;;;;;5.12;3.92;;;;;;;27.76;59.63;100165.02;1849498;76;20877;-86
2022/08/02 05:30:31;;;;;;;5.15;4.65;;;;;;;28.05;58.07;100157.41;1849402;77;20932;-87
2022/08/02 05:32:57;;;;;;;4.20;3.90;;;;;;;28.30;57.45;100158.27;1849224;77;21299;-87
2022/08/02 05:35:24;;;;;;;5.25;4.75;;;;;;;28.66;56.46;100155.37;1849320;77;21153;-86
2022/08/02 05:37:50;;;;;;;4.62;3.92;;;;;;;29.01;55.67;100148.04;1849979;76;20858;-87
2022/08/02 05:40:17;;;;;;;6.80;3.98;;;;;;;29.27;54.83;100149.64;1852133;77;20885;-87
2022/08/02 05:42:44;;;;;;;6.55;4.25;;;;;;;29.50;53.88;100142.19;1849473;77;20936;-86
2022/08/02 05:45:11;;;;;;;5.35;3.92;;;;;;;29.79;53.40;100141.06;1849634;77;21034;-88
2022/08/02 05:47:38;;;;;;;4.00;3.70;;;;;;;30.05;52.42;100152.55;1846621;76;21298;-89
2022/08/02 05:50:06;;;;;;;4.90;4.50;;;;;;;30.31;51.29;100156.75;1834810;77;21281;-85
2022/08/02 05:52:53;;;;;;;5.97;3.90;;;;;;;30.56;50.32;100154.63;1834727;77;20882;-87
2022/08/02 05:55:33;;;;;;;4.42;4.00;;;;;;;30.73;49.57;100148.52;1834490;77;21452;-87
2022/08/02 05:58:28;;;;;;;5.17;3.87;;;;;;;31.00;49.40;100139.92;1834681;77;20938;-87
2022/08/02 06:00:55;;;;;;;4.42;4.10;;;;;;;31.26;49.11;100143.95;1834716;77;21286;-87
2022/08/02 06:03:27;;;;;;;4.85;4.45;;;;;;;31.47;48.03;100131.13;1834978;77;20837;-86
2022/08/02 06:06:06;;;;;;;4.72;4.35;;;;;;;31.66;46.74;100130.41;1834867;77;21381;-86
2022/08/02 06:08:43;;;;;;;5.65;4.70;;;;;;;31.90;45.85;100135.14;1834988;78;20898;-87
2022/08/02 06:11:14;;;;;;;4.90;4.50;;;;;;;32.11;45.42;100130.11;1835839;77;20918;-85
2022/08/02 06:13:42;;;;;;;5.17;4.80;;;;;;;32.13;45.70;100130.15;1836195;77;21129;-87
2022/08/02 06:16:08;;;;;;;6.55;5.28;;;;;;;32.28;45.12;100130.09;1834899;77;20903;-88
2022/08/02 06:18:36;;;;;;;5.22;4.80;;;;;;;32.43;45.19;100129.78;1835091;76;21354;-86
2022/08/02 06:21:04;;;;;;;6.12;5.55;;;;;;;32.62;44.36;100141.78;1835059;77;20875;-86
2022/08/02 06:23:31;;;;;;;4.70;4.05;;;;;;;32.73;43.95;100144.11;1835387;77;21009;-87
2022/08/02 06:25:58;;;;;;;5.75;5.25;;;;;;;32.94;43.48;100143.83;1838118;78;21079;-86
2022/08/02 06:28:25;;;;;;;5.55;4.92;;;;;;;33.08;43.35;100132.89;1834611;77;20879;-86
2022/08/02 06:30:52;;;;;;;5.20;4.50;;;;;;;33.13;42.74;100130.77;1834760;77;20914;-84
2022/08/02 06:33:18;;;;;;;4.47;4.10;;;;;;;33.14;42.43;100121.55;1835037;77;21445;-86
2022/08/02 06:36:05;;;;;;;5.47;4.97;;;;;;;33.12;42.17;100127.78;1834932;77;20895;-86
2022/08/02 06:38:37;;;;;;;4.50;4.10;;;;;;;33.20;42.31;100132.23;1834925;77;21262;-86
2022/08/02 06:41:09;;;;;;;4.87;4.47;;;;;;;33.33;42.55;100136.47;1834865;76;20828;-86
2022/08/02 06:44:01;;;;;;;4.85;4.10;;;;;;;33.51;42.53;100137.20;1835450;77;21001;-85
2022/08/02 06:46:29;;;;;;;4.92;4.47;;;;;;;33.76;41.59;100146.17;1834957;78;20934;-85
2022/08/02 06:48:55;;;;;;;4.60;4.20;;;;;;;34.03;40.88;100146.14;1834754;75;20914;-85
2022/08/02 06:51:22;;;;;;;4.83;4.15;;;;;;;34.25;40.78;100141.99;1834932;76;21143;-85
2022/08/02 06:53:49;;;;;;;5.45;4.95;;;;;;;34.51;40.17;100152.52;1834883;77;20867;-85
2022/08/02 06:56:15;;;;;;;4.95;3.95;;;;;;;34.73;39.28;100148.33;1834869;77;20953;-85
2022/08/02 06:58:42;;;;;;;4.45;4.10;;;;;;;34.87;39.25;100146.76;1834824;77;21487;-87
2022/08/02 07:01:09;;;;;;;3.27;3.08;;;;;;;34.99;39.32;100146.53;1834927;78;20879;-86
2022/08/02 07:03:36;;;;;;;4.92;4.28;;;;;;;35.16;39.42;100141.47;1835002;77;21144;-85
2022/08/02 07:06:04;;;;;;;4.87;3.58;;;;;;;35.23;38.89;100134.66;1834834;77;20997;-86
2022/08/02 07:08:34;;;;;;;3.95;3.75;;;;;;;35.36;38.42;100141.52;1835329;77;20898;-85
2022/08/02 07:11:01;;;;;;;4.80;3.70;;;;;;;35.54;38.00;100138.83;1784255;78;20915;-85
2022/08/02 07:13:28;;;;;;;3.50;3.20;;;;;;;35.67;37.48;100139.70;1835246;76;20907;-86
2022/08/02 07:15:55;;;;;;;6.40;3.30;;;;;;;35.80;37.27;100143.02;1834845;77;21163;-84
2022/08/02 07:18:23;;;;;;;3.37;3.08;;;;;;;35.95;36.86;100145.72;1834806;76;20882;-85
2022/08/02 07:20:49;;;;;;;3.67;3.37;;;;;;;36.09;36.55;100146.02;1834959;77;20907;-84
2022/08/02 07:23:16;;;;;;;4.65;3.20;;;;;;;36.22;36.13;100139.19;1834743;77;20950;-84
2022/08/02 07:25:43;;;;;;;4.08;3.67;;;;;;;36.33;36.56;100138.11;1834855;77;20882;-86
2022/08/02 07:28:10;;;;;;;3.22;2.67;;;;;;;36.43;36.46;100147.64;1834819;77;22036;-85
2022/08/02 07:30:36;;;;;;;3.42;2.47;;;;;;;36.52;35.84;100152.80;1834649;76;20966;-85
2022/08/02 07:33:04;;;;;;;4.00;3.00;;;;;;;36.54;36.20;100149.00;1834824;76;20926;-85
2022/08/02 07:35:30;;;;;;;5.33;3.00;;;;;;;36.51;36.03;100151.73;1834728;76;20895;-85
2022/08/02 07:37:57;;;;;;;2.85;2.65;;;;;;;36.28;36.66;100147.66;1834760;77;20969;-86
2022/08/02 07:40:24;;;;;;;2.77;2.60;;;;;;;36.36;36.77;100142.20;1834755;77;21788;-85
2022/08/02 07:43:09;;;;;;;3.85;3.50;;;;;;;36.54;36.58;100149.81;1834769;77;20898;-84
2022/08/02 07:45:36;;;;;;;3.08;2.67;;;;;;;36.73;35.97;100155.55;1835131;77;21488;-85
2022/08/02 07:48:02;;;;;;;2.87;2.67;;;;;;;36.68;35.58;100164.55;1837303;77;20840;-85
2022/08/02 07:50:29;;;;;;;3.92;2.65;;;;;;;36.49;35.44;100160.75;1860103;77;20918;-84
2022/08/02 07:52:55;;;;;;;5.53;2.02;;;;;;;36.05;35.27;100166.77;1859963;77;21738;-84
2022/08/02 07:55:22;;;;;;;6.10;2.37;;;;;;;35.63;36.00;100171.34;1860092;77;20844;-85
2022/08/02 07:57:48;;;;;;;2.60;2.40;;;;;;;35.37;36.65;100163.59;1860623;77;20891;-87
2022/08/02 08:00:16;;;;;;;2.40;2.25;;;;;;;35.32;37.06;100160.87;1860297;76;20911;-85
2022/08/02 08:02:43;;;;;;;2.60;2.40;;;;;;;35.32;37.12;100170.96;1860450;77;20903;-86
2022/08/02 08:05:10;;;;;;;2.42;2.30;;;;;;;35.38;37.35;100172.63;1860562;77;21068;-85
2022/08/02 08:07:37;;;;;;;2.95;2.62;;;;;;;35.43;37.78;100178.09;1861339;76;20965;-85
2022/08/02 08:10:06;;;;;;;2.45;2.25;;;;;;;35.47;37.52;100184.09;1861111;77;21349;-85
2022/08/02 08:12:34;;;;;;;4.83;2.40;;;;;;;35.45;37.06;100182.73;1860278;76;20891;-85
2022/08/02 08:15:00;;;;;;;5.20;2.62;;;;;;;35.58;36.83;100186.87;1860110;76;20927;-84
2022/08/02 08:17:26;;;;;;;2.52;2.33;;;;;;;35.86;36.94;100186.41;1860080;77;21164;-84
2022/08/02 08:19:53;;;;;;;2.33;2.22;;;;;;;36.17;36.78;100191.89;1860006;77;20918;-85
2022/08/02 08:22:20;;;;;;;2.25;2.05;;;;;;;36.18;36.42;100180.45;1860061;76;20939;-85
2022/08/02 08:24:47;;;;;;;3.45;2.70;;;;;;;36.04;35.42;100184.21;1860084;76;20982;-84
2022/08/02 08:27:14;;;;;;;2.58;2.37;;;;;;;35.96;35.61;100181.49;1860071;76;20910;-85
2022/08/02 08:29:42;;;;;;;2.27;2.05;;;;;;;35.89;36.74;100183.13;1860001;77;21820;-85
2022/08/02 08:32:09;;;;;;;3.77;2.22;;;;;;;35.76;35.92;100189.11;1859900;77;20923;-85
2022/08/02 08:34:35;;;;;;;2.15;1.92;;;;;;;35.46;36.70;100196.63;1860213;76;21398;-86
2022/08/02 08:37:02;;;;;;;2.65;2.50;;;;;;;35.00;36.57;100196.44;1859997;76;20883;-86
2022/08/02 08:39:29;;;;;;;2.98;2.67;;;;;;;34.80;37.35;100193.05;1860108;77;20887;-86
2022/08/02 08:41:56;;;;;;;2.20;2.00;;;;;;;34.54;37.36;100196.92;1860260;77;21119;-86
2022/08/02 08:44:22;;;;;;;4.62;2.30;;;;;;;34.24;37.09;100200.22;1859938;77;20856;-85
2022/08/02 08:46:49;;;;;;;2.30;2.10;;;;;;;34.03;36.72;100195.94;1860107;77;20875;-87
2022/08/02 08:49:34;;;;;;;4.17;2.35;;;;;;;34.05;37.68;100201.95;1854894;77;21027;-85
2022/08/02 08:52:04;;;;;;;2.87;2.30;;;;;;;34.30;37.24;100194.30;1849294;77;20910;-85
2022/08/02 08:54:33;;;;;;;2.47;2.37;;;;;;;34.75;36.97;100197.93;1849313;77;21224;-86
2022/08/02 08:57:01;;;;;;;1.95;1.85;;;;;;;34.96;36.24;100196.13;1849123;77;21035;-86
2022/08/02 08:59:28;;;;;;;2.27;2.17;;;;;;;34.98;36.08;100198.05;1850516;77;20929;-85
2022/08/02 09:01:55;;;;;;;2.52;2.27;;;;;;;34.93;36.05;100204.00;1849207;76;20928;-85
2022/08/02 09:04:22;;;;;;;4.45;2.00;;;;;;;34.83;36.09;100199.33;1850527;77;21011;-86
2022/08/02 09:06:48;;;;;;;2.52;2.33;;;;;;;34.70;35.86;100205.23;1850679;77;21190;-85
2022/08/02 09:09:16;;;;;;;2.30;2.20;;;;;;;34.54;36.84;100211.09;1849191;77;21004;-87
2022/08/02 09:11:43;;;;;;;2.58;2.37;;;;;;;34.35;37.45;100210.14;1849388;77;21526;-85
2022/08/02 09:14:10;;;;;;;2.58;2.37;;;;;;;34.12;37.46;100215.38;1849188;77;20917;-86
2022/08/02 09:16:42;;;;;;;2.42;2.08;;;;;;;33.78;37.61;100216.11;1850816;77;21039;-84
2022/08/02 09:19:25;;;;;;;3.62;3.00;;;;;;;33.41;38.83;100212.11;1849195;77;21194;-86
2022/08/02 09:21:58;;;;;;;2.45;2.35;;;;;;;33.15;39.50;100208.27;1849161;77;21331;-83
2022/08/02 09:24:25;;;;;;;2.95;2.40;;;;;;;32.89;40.21;100210.33;1824055;77;20866;-85
2022/08/02 09:26:51;;;;;;;4.40;3.98;;;;;;;32.67;40.71;100215.16;1849177;76;20890;-86
2022/08/02 09:29:21;;;;;;;3.40;3.10;;;;;;;32.46;40.48;100214.00;1849484;77;20925;-86
2022/08/02 09:31:48;;;;;;;2.85;2.65;;;;;;;32.22;40.74;100209.26;1824109;77;21936;-86
2022/08/02 09:34:14;;;;;;;3.65;3.33;;;;;;;31.91;40.94;100220.89;1849564;77;20908;-87
2022/08/02 09:36:43;;;;;;;3.45;3.20;;;;;;;31.45;41.81;100225.95;1849362;77;20826;-86
2022/08/02 09:39:12;;;;;;;4.15;3.22;;;;;;;31.08;42.56;100230.27;1849482;76;20881;-86
2022/08/02 09:41:41;;;;;;;3.27;3.08;;;;;;;30.83;43.60;100227.25;1849509;77;20975;-86
2022/08/02 09:44:09;;;;;;;3.33;3.02;;;;;;;30.67;44.37;100229.31;1849616;77;21139;-85
2022/08/02 09:46:42;;;;;;;3.35;2.95;;;;;;;30.49;44.80;100228.35;1849782;77;20928;-85
2022/08/02 09:49:13;;;;;;;7.05;3.60;;;;;;;30.36;45.05;100225.86;1845259;76;20934;-86
2022/08/02 09:51:47;;;;;;;3.72;3.42;;;;;;;30.24;45.28;100236.63;1834747;76;20890;-84
2022/08/02 09:54:19;;;;;;;3.60;3.30;;;;;;;30.11;45.91;100233.59;1834686;78;20856;-85
2022/08/02 09:56:50;;;;;;;3.52;3.33;;;;;;;30.05;46.10;100233.68;1835076;78;21274;-84
2022/08/02 09:59:18;;;;;;;4.72;3.40;;;;;;;30.02;46.51;100235.51;1834110;76;20942;-85
2022/08/02 10:01:46;;;;;;;3.60;3.30;;;;;;;29.97;46.48;100234.84;1835396;77;20863;-84
2022/08/02 10:04:13;;;;;;;3.60;3.30;;;;;;;29.94;46.26;100232.58;1835709;77;20847;-85
2022/08/02 10:06:42;;;;;;;2.80;2.47;;;;;;;29.93;46.65;100235.00;1835409;78;21348;-83
2022/08/02 10:09:11;;;;;;;3.35;3.10;;;;;;;29.92;46.35;100236.85;1835235;77;21224;-86
2022/08/02 10:11:38;;;;;;;3.95;3.10;;;;;;;29.96;46.02;100237.23;1835122;77;20946;-86
2022/08/02 10:14:08;;;;;;;3.72;3.40;;;;;;;30.00;46.43;100240.31;1835242;78;20910;-86
2022/08/02 10:16:41;;;;;;;3.33;2.58;;;;;;;30.07;46.21;100237.80;1835116;76;20879;-84
2022/08/02 10:19:07;;;;;;;3.25;3.05;;;;;;;30.21;46.24;100233.02;1835216;78;20922;-84
2022/08/02 10:21:49;;;;;;;3.42;3.22;;;;;;;30.38;46.20;100228.34;1835154;77;21891;-85
2022/08/02 10:24:20;;;;;;;3.22;3.00;;;;;;;30.50;45.12;100221.05;1834200;77;20906;-87
2022/08/02 10:26:47;;;;;;;3.87;3.40;;;;;;;30.69;44.76;100227.20;1835146;76;21005;-85
2022/08/02 10:29:17;;;;;;;3.02;2.80;;;;;;;30.81;44.55;100225.30;1835335;77;20977;-86
2022/08/02 10:31:54;;;;;;;3.58;3.37;;;;;;;31.00;44.16;100230.66;1835204;76;20980;-85
2022/08/02 10:34:38;;;;;;;2.95;2.85;;;;;;;31.14;44.24;100230.14;1808746;78;21328;-84
2022/08/02 10:37:06;;;;;;;3.30;3.10;;;;;;;31.06;43.15;100229.68;1835238;76;20844;-85
2022/08/02 10:39:44;;;;;;;3.22;3.02;;;;;;;31.01;43.41;100234.45;1835379;77;20898;-86
2022/08/02 10:42:12;;;;;;;3.55;3.35;;;;;;;30.95;43.97;100232.18;1835139;77;20918;-84
2022/08/02 10:44:40;;;;;;;3.20;3.00;;;;;;;30.82;43.90;100229.67;1835077;77;21467;-84
2022/08/02 10:47:23;;;;;;;3.33;3.12;;;;;;;30.75;45.10;100237.91;1835471;77;21580;-84
2022/08/02 10:49:58;;;;;;;3.60;3.33;;;;;;;30.63;44.37;100229.48;1846141;76;28045;-83
2022/08/02 10:52:29;;;;;;;3.50;3.30;;;;;;;30.42;45.08;100226.28;1860368;77;21437;-85
2022/08/02 10:55:11;;;;;;;3.52;3.33;;;;;;;30.24;45.57;100227.16;1860341;76;20922;-85
2022/08/02 10:57:37;;;;;;;3.95;3.65;;;;;;;30.15;46.18;100223.14;1860716;77;21341;-84
2022/08/02 11:00:25;;;;;;;4.37;3.70;;;;;;;29.96;45.45;100225.88;1862048;77;21117;-86
2022/08/02 11:02:55;;;;;;;3.80;3.60;;;;;;;29.79;46.57;100222.70;1860365;76;20836;-86
2022/08/02 13:19:20;;;;;;;5.53;5.05;;;;;;;27.60;52.94;100119.74;1828770;77;21937;-92
2022/08/02 13:21:47;;;;;;;10.95;10.05;;;;;;;27.58;52.76;100125.34;1834968;77;21428;-94
2022/08/02 13:24:15;;;;;;;4.97;4.67;;;;;;;27.56;53.10;100123.91;1834108;77;21116;-93
2022/08/02 13:26:42;;;;;;;13.18;12.03;;;;;;;27.49;53.05;100123.41;1834169;78;20884;-94
2022/08/02 13:29:10;;;;;;;5.35;4.78;;;;;;;27.45;53.63;100119.49;1834312;78;20897;-95
2022/08/02 13:31:38;;;;;;;8.15;7.45;;;;;;;27.42;52.87;100119.94;1834715;77;20948;-94
2022/08/02 13:34:06;;;;;;;5.28;4.83;;;;;;;27.37;52.66;100119.77;1834338;77;20829;-92
2022/08/02 13:36:33;;;;;;;5.50;5.10;;;;;;;27.32;52.26;100114.17;1834383;78;21125;-94
2022/08/02 13:39:02;;;;;;;6.30;5.47;;;;;;;27.31;52.84;100119.80;1834209;78;20865;-95
2022/08/02 13:41:31;;;;;;;13.98;12.78;;;;;;;27.27;52.99;100119.38;1802996;78;20912;-93
2022/08/02 13:43:57;;;;;;;5.33;4.83;;;;;;;27.23;52.99;100127.05;1834173;78;21440;-93
2022/08/02 13:46:23;;;;;;;5.78;5.37;;;;;;;27.21;52.90;100126.96;1834254;77;20833;-94
2022/08/02 13:48:50;;;;;;;5.72;5.33;;;;;;;27.18;53.14;100126.84;1834595;78;21078;-92
2022/08/02 13:51:17;;;;;;;5.30;4.80;;;;;;;27.16;53.79;100124.87;1834230;77;21440;-93